Time;durP1;ratioP1;P1;durP2;ratioP2;P2;SDS_P1;SDS_P2;PMS_P1;PMS_P2;Temp;Humidity;BMP_temperature;BMP_pressure;BME280_temperature;BME280_humidity;BME280_pressure;Samples;Min_cycle;Max_cycle;Signal;HPM_P1;HPM_P2
2023/09/10 00:02:28;;;;;;;;;;;22.30;40.20;;;21.80;39.91;101295.34;12250077;19;19923;-86
2023/09/10 00:06:32;;;;;;;;;;;22.30;40.30;;;21.87;39.85;101314.22;12246601;19;20349;-86
2023/09/10 00:10:33;;;;;;;;;;;22.20;40.30;;;21.80;39.63;101313.97;12250969;19;19941;-86
2023/09/10 00:14:35;;;;;;;;;;;22.20;40.30;;;21.67;40.00;101309.94;12250629;19;19933;-86
2023/09/10 00:18:37;;;;;;;;;;;22.10;40.30;;;21.70;39.60;101320.28;12248739;19;19915;-86
2023/09/10 00:22:42;;;;;;;;;;;22.00;40.40;;;21.46;39.91;101297.63;12249430;19;19961;-86
2023/09/10 00:26:43;;;;;;;;;;;22.00;40.30;;;21.54;40.20;101303.09;12244415;19;19928;-86
2023/09/10 00:30:52;;;;;;;;;;;21.90;40.40;;;21.51;39.96;101308.69;12248518;19;20381;-86
2023/09/10 00:34:53;;;;;;;;;;;21.90;40.40;;;21.42;39.86;101296.25;12245883;19;20404;-86
2023/09/10 00:38:55;;;;;;;;;;;21.80;40.40;;;21.43;40.16;101301.41;12245486;19;20512;-86
2023/09/10 00:42:56;;;;;;;;;;;21.80;40.50;;;21.26;40.03;101282.69;12247277;19;19923;-85
2023/09/10 00:46:58;;;;;;;;;;;21.70;40.40;;;21.23;40.33;101283.78;12243426;19;19930;-86
2023/09/10 00:50:59;;;;;;;;;;;21.70;40.50;;;21.27;40.26;101301.13;12247509;19;19919;-86
2023/09/10 00:55:01;;;;;;;;;;;21.60;40.50;;;21.17;40.35;101290.50;12244816;19;19923;-86
2023/09/10 00:59:03;;;;;;;;;;;21.60;40.60;;;21.16;40.47;101296.78;12244981;19;20254;-86
2023/09/10 01:03:06;;;;;;;;;;;21.60;40.60;;;21.09;40.29;101285.06;12247643;19;20253;-86
2023/09/10 01:07:08;;;;;;;;;;;21.50;40.60;;;20.86;40.41;101254.44;12243848;19;19943;-86
2023/09/10 01:11:21;;;;;;;;;;;21.50;40.60;;;21.08;40.47;101301.94;12245205;19;20279;-86
2023/09/10 01:15:27;;;;;;;;;;;21.50;40.70;;;21.00;40.51;101288.53;12244990;19;19918;-85
2023/09/10 01:19:50;;;;;;;;;;;21.40;40.70;;;21.03;40.32;101300.69;12242861;19;19933;-86
2023/09/10 01:24:04;;;;;;;;;;;21.40;40.70;;;20.99;40.56;101303.63;12238011;19;19931;-86
2023/09/10 01:28:06;;;;;;;;;;;21.40;40.80;;;20.86;40.29;101296.91;12245340;19;19925;-86
2023/09/10 01:32:16;;;;;;;;;;;21.40;40.80;;;20.86;40.61;101318.97;12243232;19;19942;-86
2023/09/10 01:36:36;;;;;;;;;;;21.30;40.70;;;20.81;40.50;101313.25;12242181;19;19919;-86
2023/09/10 01:41:10;;;;;;;;;;;21.30;40.80;;;20.73;40.48;101308.59;12243302;19;20359;-86
2023/09/10 01:45:12;;;;;;;;;;;21.20;40.80;;;20.66;40.92;101307.50;12242275;19;19911;-86
2023/09/10 01:49:14;;;;;;;;;;;21.20;40.80;;;20.41;41.05;101265.47;12244181;19;19911;-86
2023/09/10 01:53:16;;;;;;;;;;;21.10;40.90;;;20.34;40.73;101271.34;12241633;19;19962;-86
2023/09/10 01:57:18;;;;;;;;;;;21.10;41.00;;;20.52;41.11;101310.47;12240582;19;19920;-86
2023/09/10 02:01:20;;;;;;;;;;;21.00;40.90;;;20.45;41.12;101310.19;12240372;19;19940;-86
2023/09/10 02:05:22;;;;;;;;;;;21.00;40.90;;;20.31;41.20;101298.13;12241370;19;20333;-86
2023/09/10 02:09:23;;;;;;;;;;;20.90;41.00;;;20.37;40.92;101306.53;12242982;19;19930;-86
2023/09/10 02:13:25;;;;;;;;;;;20.90;41.00;;;20.41;41.00;101318.53;12242551;19;19939;-86
2023/09/10 02:17:26;;;;;;;;;;;20.90;41.00;;;20.28;40.96;101300.19;12240018;19;19922;-86
2023/09/10 02:21:28;;;;;;;;;;;20.80;41.00;;;20.08;40.81;101270.94;12240876;19;19945;-86
2023/09/10 02:25:32;;;;;;;;;;;20.80;41.00;;;20.24;41.06;101320.84;12240356;19;19935;-86
2023/09/10 02:29:34;;;;;;;;;;;20.70;41.10;;;20.03;41.08;101299.66;12243924;19;19922;-86
2023/09/10 02:33:35;;;;;;;;;;;20.60;41.00;;;19.74;41.14;101259.78;12242030;19;19956;-86
2023/09/10 02:37:37;;;;;;;;;;;20.60;41.10;;;20.02;41.11;101321.03;12240797;19;19923;-86
2023/09/10 02:41:39;;;;;;;;;;;20.50;41.20;;;19.89;40.98;101308.81;12241789;19;19982;-86
2023/09/10 02:45:41;;;;;;;;;;;20.40;41.10;;;19.85;41.00;101311.88;12239697;19;19919;-86
2023/09/10 02:49:43;;;;;;;;;;;20.40;41.20;;;19.84;41.27;101324.25;12239399;19;19926;-86
2023/09/10 02:53:44;;;;;;;;;;;20.40;41.30;;;19.79;41.52;101321.16;12240832;19;19931;-86
2023/09/10 02:57:47;;;;;;;;;;;20.20;41.20;;;19.75;41.19;101325.06;12238144;19;20369;-86
2023/09/10 03:01:49;;;;;;;;;;;20.30;41.30;;;19.71;41.41;101326.28;12239548;19;19923;-86
2023/09/10 03:05:50;;;;;;;;;;;20.20;41.30;;;19.59;41.37;101314.88;12240226;19;19926;-86
2023/09/10 03:09:52;;;;;;;;;;;20.10;41.30;;;19.40;41.62;101278.47;12243038;19;20505;-86
2023/09/10 03:13:53;;;;;;;;;;;20.20;41.40;;;19.61;41.33;101320.06;12250304;19;19926;-86
2023/09/10 03:17:55;;;;;;;;;;;20.10;41.40;;;19.57;41.66;101319.44;12249478;19;20260;-86
2023/09/10 03:21:57;;;;;;;;;;;20.10;41.40;;;19.55;41.38;101312.59;12251138;19;19939;-86
2023/09/10 03:25:59;;;;;;;;;;;20.10;41.50;;;19.52;41.81;101316.34;12248073;19;19922;-86
2023/09/10 03:30:01;;;;;;;;;;;20.00;41.50;;;19.29;41.45;101289.13;12251481;19;19921;-86
2023/09/10 03:34:03;;;;;;;;;;;20.00;41.50;;;19.41;41.70;101311.09;12248140;19;19927;-86
2023/09/10 03:38:05;;;;;;;;;;;20.00;41.50;;;19.41;41.59;101316.41;12247634;19;19922;-86
2023/09/10 03:42:08;;;;;;;;;;;19.90;41.40;;;19.33;41.79;101305.59;12248293;19;19913;-86
2023/09/10 03:46:10;;;;;;;;;;;19.90;41.60;;;19.22;41.63;101293.25;12246673;19;19991;-86
2023/09/10 03:50:11;;;;;;;;;;;19.80;41.50;;;19.18;42.03;101292.69;12250027;19;19918;-86
2023/09/10 03:54:13;;;;;;;;;;;19.80;41.60;;;19.23;41.64;101301.09;12248412;19;20325;-86
2023/09/10 03:58:15;;;;;;;;;;;19.80;41.60;;;19.12;42.04;101293.19;12243996;19;19923;-86
2023/09/10 04:02:17;;;;;;;;;;;19.70;41.60;;;19.05;41.81;101286.72;12249091;19;20265;-86
2023/09/10 04:06:19;;;;;;;;;;;19.70;41.60;;;19.09;42.11;101292.59;12245525;19;20231;-86
2023/09/10 04:10:21;;;;;;;;;;;19.70;41.60;;;18.85;41.96;101255.72;12246489;19;19918;-86
2023/09/10 04:14:22;;;;;;;;;;;19.60;41.60;;;18.94;42.01;101279.66;12247891;19;19922;-86
2023/09/10 04:18:24;;;;;;;;;;;19.60;41.70;;;18.95;41.88;101297.19;12247140;19;20239;-86
2023/09/10 04:22:26;;;;;;;;;;;19.50;41.60;;;18.90;42.13;101286.16;12246507;19;19951;-86
2023/09/10 04:26:28;;;;;;;;;;;19.50;41.70;;;18.77;42.26;101278.38;12245189;19;19910;-86
2023/09/10 04:30:30;;;;;;;;;;;19.40;41.60;;;18.81;41.85;101292.19;12246970;19;20570;-86
2023/09/10 04:34:33;;;;;;;;;;;19.40;41.70;;;18.82;42.24;101298.31;12247199;19;19982;-86
2023/09/10 04:38:35;;;;;;;;;;;19.40;41.80;;;18.56;42.25;101274.78;12244747;19;19947;-86
2023/09/10 04:42:37;;;;;;;;;;;19.40;41.80;;;18.81;42.16;101321.31;12246984;19;19982;-86
2023/09/10 04:46:39;;;;;;;;;;;19.40;41.80;;;18.77;42.30;101318.06;12246734;19;20162;-86
2023/09/10 04:50:40;;;;;;;;;;;19.30;41.80;;;18.55;42.37;101295.09;12245407;19;19934;-86
2023/09/10 04:54:42;;;;;;;;;;;19.40;41.90;;;18.62;42.23;101310.47;12240905;19;20273;-86
2023/09/10 04:58:44;;;;;;;;;;;19.30;41.80;;;18.62;42.48;101315.78;12245238;19;19955;-86
2023/09/10 05:02:46;;;;;;;;;;;19.30;41.90;;;18.58;42.35;101318.66;12247783;19;19915;-87
2023/09/10 05:06:47;;;;;;;;;;;19.30;41.80;;;18.63;42.50;101328.84;12244724;19;20245;-87
2023/09/10 05:10:49;;;;;;;;;;;19.20;41.90;;;18.62;42.40;101344.88;12246460;19;19911;-87
2023/09/10 05:14:52;;;;;;;;;;;19.20;41.90;;;18.59;42.34;101340.66;12243942;19;19979;-86
2023/09/10 05:18:53;;;;;;;;;;;19.20;42.00;;;18.50;42.33;101334.31;12244262;19;19919;-87
2023/09/10 05:22:55;;;;;;;;;;;19.20;42.20;;;18.41;42.52;101335.00;12243994;19;19930;-87
2023/09/10 05:26:57;;;;;;;;;;;19.10;42.10;;;18.41;42.49;101340.31;12246559;19;19930;-87
2023/09/10 05:31:04;;;;;;;;;;;19.10;42.10;;;18.39;42.51;101344.91;12248783;19;20184;-87
2023/09/10 05:35:07;;;;;;;;;;;19.00;42.10;;;18.30;42.73;101332.38;12247561;19;19922;-87
2023/09/10 05:39:09;;;;;;;;;;;19.00;42.10;;;18.34;42.69;101354.97;12246200;19;20257;-87
2023/09/10 05:43:11;;;;;;;;;;;19.00;42.40;;;18.29;42.65;101343.91;12248374;19;19915;-87
2023/09/10 05:47:13;;;;;;;;;;;18.90;42.20;;;18.25;42.80;101347.75;12243761;19;19922;-87
2023/09/10 05:51:15;;;;;;;;;;;18.90;42.30;;;18.28;42.82;101348.38;12247046;19;19919;-87
2023/09/10 05:55:17;;;;;;;;;;;19.00;42.50;;;18.30;42.65;101350.88;12244454;19;19919;-89
2023/09/10 05:59:19;;;;;;;;;;;18.90;42.50;;;18.31;42.88;101347.28;12246217;19;20238;-85
2023/09/10 06:03:21;;;;;;;;;;;19.00;42.80;;;18.12;42.81;101324.94;12243065;19;19927;-85
2023/09/10 06:07:23;;;;;;;;;;;19.00;42.70;;;18.39;43.07;101370.47;12244078;19;19943;-85
2023/09/10 06:11:24;;;;;;;;;;;19.00;42.90;;;18.42;42.97;101364.97;12245465;19;19915;-85
2023/09/10 06:15:27;;;;;;;;;;;19.10;43.00;;;18.42;43.15;101360.50;12244110;19;19911;-87
2023/09/10 06:19:29;;;;;;;;;;;19.10;43.20;;;18.44;42.98;101344.50;12242405;19;20269;-85
2023/09/10 06:23:31;;;;;;;;;;;19.20;43.30;;;18.49;43.12;101339.69;12245117;19;19910;-86
2023/09/10 06:27:33;;;;;;;;;;;19.30;43.40;;;18.61;43.33;101351.13;12240685;19;19923;-85
2023/09/10 06:31:35;;;;;;;;;;;19.40;43.70;;;18.62;43.47;101337.78;12244449;19;19986;-85
2023/09/10 06:35:38;;;;;;;;;;;19.50;43.70;;;18.76;43.36;101355.22;12242990;19;19918;-85
2023/09/10 06:39:40;;;;;;;;;;;19.50;43.80;;;18.85;43.44;101357.16;12242117;19;19971;-85
2023/09/10 06:43:42;;;;;;;;;;;19.60;43.80;;;18.91;43.59;101356.66;12244416;19;20258;-86
2023/09/10 06:47:50;;;;;;;;;;;19.70;44.00;;;18.85;43.65;101338.63;12257014;19;19930;-86
2023/09/10 06:51:51;;;;;;;;;;;19.80;44.10;;;18.89;43.70;101324.16;12261379;19;19910;-86
2023/09/10 06:55:54;;;;;;;;;;;19.80;44.30;;;18.98;44.00;101322.56;12255850;19;19950;-85
2023/09/10 06:59:57;;;;;;;;;;;20.00;44.50;;;19.21;43.91;101341.91;12257196;19;19990;-86
2023/09/10 07:03:58;;;;;;;;;;;20.10;44.70;;;19.40;43.83;101354.47;12255124;19;19923;-86
2023/09/10 07:08:00;;;;;;;;;;;20.20;44.70;;;19.53;43.99;101359.59;12256602;19;19929;-85
2023/09/10 07:12:01;;;;;;;;;;;20.40;44.80;;;19.38;43.91;101317.50;12257290;19;19923;-85
2023/09/10 07:16:03;;;;;;;;;;;20.50;45.00;;;19.80;44.18;101362.63;12253099;19;19927;-85
2023/09/10 07:20:05;;;;;;;;;;;20.70;45.00;;;19.97;44.19;101373.59;12252904;19;20039;-85
2023/09/10 07:24:06;;;;;;;;;;;20.80;45.10;;;20.12;43.96;101364.34;12255614;19;19952;-85
2023/09/10 07:28:08;;;;;;;;;;;21.00;44.80;;;20.29;44.12;101365.56;12247394;19;19929;-83
2023/09/10 07:32:09;;;;;;;;;;;21.20;44.90;;;20.46;44.54;101364.09;12254187;19;20019;-83
2023/09/10 07:36:11;;;;;;;;;;;21.30;45.00;;;20.70;44.73;101367.28;12248408;19;19919;-83
2023/09/10 07:40:14;;;;;;;;;;;21.60;44.90;;;20.96;44.91;101364.16;12252532;19;20259;-84
2023/09/10 07:44:15;;;;;;;;;;;21.90;44.90;;;21.13;45.07;101365.28;12252095;19;19915;-83
2023/09/10 07:48:17;;;;;;;;;;;22.20;45.00;;;21.46;45.13;101374.72;12252211;19;19936;-83
2023/09/10 07:52:18;;;;;;;;;;;22.50;45.10;;;21.69;45.25;101369.13;12254255;19;19986;-84
2023/09/10 07:56:19;;;;;;;;;;;22.80;45.10;;;22.04;44.89;101377.31;12249972;19;19974;-83
2023/09/10 08:00:21;;;;;;;;;;;23.20;45.10;;;21.96;45.14;101307.22;12250059;19;19971;-83
2023/09/10 08:04:23;;;;;;;;;;;23.50;45.10;;;22.61;45.09;101357.81;12250307;19;20016;-83
2023/09/10 08:08:25;;;;;;;;;;;23.80;44.90;;;23.03;45.19;101370.63;12250523;19;19919;-83
2023/09/10 08:12:27;;;;;;;;;;;24.20;44.70;;;23.28;45.26;101371.75;12249954;19;20238;-83
2023/09/10 08:16:28;;;;;;;;;;;24.60;44.50;;;23.51;45.57;101358.78;12249284;19;19926;-83
2023/09/10 08:20:30;;;;;;;;;;;24.80;44.40;;;23.89;45.14;101376.28;12245757;19;19933;-83
2023/09/10 08:24:31;;;;;;;;;;;25.20;44.40;;;24.17;45.24;101371.63;12248528;19;19992;-83
2023/09/10 08:28:33;;;;;;;;;;;25.40;44.20;;;24.43;45.48;101382.28;12248716;19;19919;-84
2023/09/10 08:32:36;;;;;;;;;;;25.80;44.20;;;24.68;45.08;101375.25;12248890;19;19915;-83
2023/09/10 08:36:38;;;;;;;;;;;26.00;44.60;;;24.99;44.83;101372.00;12245139;19;19925;-83
2023/09/10 08:40:45;;;;;;;;;;;26.30;44.60;;;25.23;45.24;101378.44;12250378;19;20342;-83
2023/09/10 08:44:53;;;;;;;;;;;26.50;44.70;;;25.42;44.75;101366.59;12246478;19;19923;-84
2023/09/10 08:48:56;;;;;;;;;;;26.80;44.70;;;25.68;44.68;101371.75;12249982;19;19911;-84
2023/09/10 08:52:58;;;;;;;;;;;26.90;44.40;;;25.88;44.86;101377.66;12248986;19;20601;-84
2023/09/10 08:57:01;;;;;;;;;;;27.10;44.20;;;26.01;44.79;101362.72;12248828;19;19942;-84
2023/09/10 09:01:04;;;;;;;;;;;27.30;44.10;;;26.25;45.03;101359.16;12250802;19;19940;-84
2023/09/10 09:05:06;;;;;;;;;;;27.60;44.10;;;26.51;44.60;101371.47;12248310;19;20007;-83
2023/09/10 09:09:10;;;;;;;;;;;27.80;44.00;;;26.61;44.70;101353.34;12246459;19;19934;-84
2023/09/10 09:13:12;;;;;;;;;;;28.00;43.60;;;26.76;44.88;101356.13;12246452;19;19936;-83
2023/09/10 09:17:14;;;;;;;;;;;28.10;43.60;;;27.03;44.58;101354.81;12242987;19;19923;-83
2023/09/10 09:21:18;;;;;;;;;;;28.30;43.50;;;27.22;44.43;101353.53;12245335;19;20257;-84
2023/09/10 09:25:19;;;;;;;;;;;28.50;43.40;;;27.38;44.46;101352.56;12247954;19;19922;-83
2023/09/10 09:29:22;;;;;;;;;;;28.60;43.30;;;27.59;44.21;101357.25;12244772;19;19922;-84
2023/09/10 09:33:23;;;;;;;;;;;28.80;43.20;;;27.78;44.47;101356.72;12246116;19;19927;-83
2023/09/10 09:37:24;;;;;;;;;;;29.00;42.60;;;27.95;44.23;101346.72;12242217;19;19919;-84
2023/09/10 09:41:26;;;;;;;;;;;29.20;42.60;;;28.12;44.12;101342.00;12241427;19;20287;-83
2023/09/10 09:45:27;;;;;;;;;;;29.40;41.80;;;28.37;43.95;101360.50;12243305;19;19928;-85
2023/09/10 09:49:29;;;;;;;;;;;29.60;42.00;;;28.47;43.98;101338.78;12260090;19;19914;-84
2023/09/10 09:53:32;;;;;;;;;;;29.70;41.90;;;28.63;44.09;101341.25;12256606;19;19927;-84
2023/09/10 09:57:36;;;;;;;;;;;29.90;42.10;;;28.86;43.75;101354.50;12253031;19;19950;-85
2023/09/10 10:01:40;;;;;;;;;;;30.10;40.80;;;29.06;43.39;101352.09;12252332;19;19950;-83
2023/09/10 10:05:42;;;;;;;;;;;30.20;40.80;;;29.20;43.67;101347.66;12241276;19;19911;-85
2023/09/10 10:09:44;;;;;;;;;;;30.40;41.50;;;29.31;43.26;101334.53;12240520;19;19918;-83
2023/09/10 10:13:45;;;;;;;;;;;30.50;41.70;;;29.11;43.52;101285.94;12237187;19;20385;-84
2023/09/10 10:17:47;;;;;;;;;;;30.70;41.00;;;29.66;43.07;101349.97;12221356;19;20340;-83
2023/09/10 10:21:49;;;;;;;;;;;30.80;41.30;;;29.77;43.01;101335.97;12237223;19;19925;-81
2023/09/10 10:25:52;;;;;;;;;;;30.90;41.10;;;29.95;42.61;101344.38;12237454;19;19927;-80
2023/09/10 10:29:54;;;;;;;;;;;31.00;40.70;;;30.09;42.77;101344.44;12241539;19;19930;-81
2023/09/10 10:34:19;;;;;;;;;;;31.10;40.20;;;30.18;42.42;101340.56;12237754;19;19953;-81
2023/09/10 10:38:21;;;;;;;;;;;31.30;40.80;;;30.33;42.52;101325.13;12239274;19;19925;-81
2023/09/10 10:42:49;;;;;;;;;;;31.40;39.80;;;30.52;42.25;101328.94;12208772;19;19919;-81
2023/09/10 10:51:44;;;;;;;;;;;31.70;39.90;;;30.76;41.80;101311.38;12230010;19;20376;-80
2023/09/10 10:55:50;;;;;;;;;;;31.80;40.20;;;30.90;41.78;101319.53;12237087;19;19914;-81
2023/09/10 10:59:52;;;;;;;;;;;31.90;39.90;;;31.00;41.69;101314.53;12226227;19;19907;-81
2023/09/10 11:03:53;;;;;;;;;;;32.10;40.00;;;31.13;41.65;101313.75;12237292;19;19933;-81
2023/09/10 11:08:33;;;;;;;;;;;32.20;40.60;;;31.30;41.33;101315.84;12230863;19;20329;-82
2023/09/10 11:12:34;;;;;;;;;;;32.30;39.50;;;31.43;41.24;101308.78;12228922;19;19922;-82
2023/09/10 11:16:42;;;;;;;;;;;32.40;40.00;;;31.57;41.00;101315.00;12236655;19;20341;-82
2023/09/10 11:20:49;;;;;;;;;;;32.50;38.50;;;31.71;41.24;101312.09;12239634;19;19930;-83
2023/09/10 11:25:06;;;;;;;;;;;32.70;39.80;;;31.85;40.84;101314.78;12238245;19;19922;-83
2023/09/10 11:29:08;;;;;;;;;;;32.80;39.10;;;31.94;40.94;101308.94;12233270;19;19922;-82
2023/09/10 11:33:33;;;;;;;;;;;33.00;39.30;;;32.07;40.71;101316.19;12241186;19;19961;-82
2023/09/10 11:37:35;;;;;;;;;;;33.00;39.70;;;32.14;40.80;101311.59;12247967;19;20221;-81
2023/09/10 11:41:37;;;;;;;;;;;33.10;39.00;;;32.13;40.48;101291.00;12250227;19;19927;-82
2023/09/10 11:45:38;;;;;;;;;;;33.20;39.10;;;32.31;40.35;101294.91;12250837;19;19930;-82
2023/09/10 11:49:40;;;;;;;;;;;33.30;39.00;;;32.43;40.20;101311.25;12243522;19;19923;-82
2023/09/10 11:53:41;;;;;;;;;;;33.30;38.50;;;32.43;40.14;101301.28;12251335;19;19922;-83
2023/09/10 11:57:43;;;;;;;;;;;33.40;38.70;;;32.43;40.31;101287.75;12248280;19;19927;-84
2023/09/10 12:01:44;;;;;;;;;;;33.40;38.50;;;32.56;40.13;101293.13;12251435;19;19925;-82
2023/09/10 12:05:46;;;;;;;;;;;33.50;38.30;;;32.65;39.81;101291.03;12249709;19;19922;-82
2023/09/10 12:09:47;;;;;;;;;;;33.50;38.40;;;32.71;39.76;101300.97;12244717;19;20436;-83
2023/09/10 12:13:49;;;;;;;;;;;33.60;38.30;;;32.73;39.69;101289.91;12251958;19;19923;-82
2023/09/10 12:17:51;;;;;;;;;;;33.70;38.50;;;32.80;39.37;101283.41;12245999;19;19943;-82
2023/09/10 12:21:52;;;;;;;;;;;33.70;38.30;;;32.88;39.59;101281.50;12249663;19;19927;-83
2023/09/10 12:25:58;;;;;;;;;;;33.80;38.30;;;32.95;39.01;101293.94;12247628;19;19944;-82
2023/09/10 12:29:59;;;;;;;;;;;33.80;38.30;;;33.01;39.04;101293.09;12244164;19;20328;-83
2023/09/10 12:34:02;;;;;;;;;;;33.80;37.50;;;33.02;38.96;101283.91;12247479;19;19935;-82
2023/09/10 12:38:03;;;;;;;;;;;33.90;38.10;;;33.07;38.90;101277.84;12247197;19;19923;-83
2023/09/10 12:42:05;;;;;;;;;;;34.00;38.30;;;33.15;39.05;101279.44;12245838;19;19919;-83
2023/09/10 12:46:07;;;;;;;;;;;33.90;37.60;;;33.12;38.63;101274.47;12248166;19;20401;-84
2023/09/10 12:50:10;;;;;;;;;;;34.00;37.20;;;33.24;38.46;101288.94;12240924;19;20336;-83
2023/09/10 12:54:13;;;;;;;;;;;34.10;37.90;;;33.26;38.38;101289.56;12245590;19;19914;-83
2023/09/10 12:58:16;;;;;;;;;;;34.10;37.90;;;33.23;38.31;101277.28;12240787;19;19918;-83
2023/09/10 13:02:21;;;;;;;;;;;34.10;36.90;;;33.28;38.29;101280.16;12247237;19;19922;-83
2023/09/10 13:06:23;;;;;;;;;;;34.10;37.50;;;33.35;38.21;101280.13;12242261;19;19935;-83
2023/09/10 13:10:24;;;;;;;;;;;34.20;36.80;;;33.36;37.97;101287.19;12245779;19;19935;-82
2023/09/10 13:14:26;;;;;;;;;;;34.20;35.00;;;33.32;37.79;101269.69;12244553;19;19915;-84
2023/09/10 13:18:27;;;;;;;;;;;34.10;36.80;;;33.34;37.76;101283.03;12243059;19;19951;-85
2023/09/10 13:22:29;;;;;;;;;;;34.10;36.20;;;33.23;37.75;101254.81;12243466;19;19915;-83
2023/09/10 13:26:30;;;;;;;;;;;34.10;37.20;;;33.42;37.54;101275.44;12244308;19;20282;-83
2023/09/10 13:30:32;;;;;;;;;;;34.20;37.40;;;33.46;37.36;101271.25;12245208;19;19982;-84
2023/09/10 13:34:37;;;;;;;;;;;34.20;37.30;;;33.47;37.41;101269.38;12239220;19;21320;-84
2023/09/10 13:38:38;;;;;;;;;;;34.20;37.40;;;33.38;37.28;101254.44;12238783;19;19918;-83
2023/09/10 13:42:40;;;;;;;;;;;34.20;37.30;;;33.45;37.23;101264.16;12241277;19;19926;-84
2023/09/10 13:46:41;;;;;;;;;;;34.20;37.40;;;33.43;37.15;101265.44;12244918;19;19918;-82
2023/09/10 13:50:42;;;;;;;;;;;34.10;37.10;;;33.38;37.18;101255.28;12244370;19;19930;-83
2023/09/10 13:54:44;;;;;;;;;;;34.10;37.20;;;33.46;37.04;101265.84;12238383;19;19919;-84
2023/09/10 13:58:45;;;;;;;;;;;34.10;37.40;;;33.41;37.01;101260.25;12234814;19;19922;-84
2023/09/10 14:02:46;;;;;;;;;;;34.10;37.30;;;33.42;37.22;101252.97;12235531;19;20015;-82
2023/09/10 14:06:48;;;;;;;;;;;34.10;37.20;;;33.37;36.70;101240.06;12234327;19;19926;-82
2023/09/10 14:10:49;;;;;;;;;;;34.00;37.10;;;33.46;36.87;101263.13;12215466;19;19951;-83
2023/09/10 14:14:51;;;;;;;;;;;34.10;37.20;;;33.47;36.42;101256.66;12234388;19;20384;-83
2023/09/10 14:18:53;;;;;;;;;;;34.00;37.00;;;33.46;36.79;101263.13;12229339;19;19923;-84
2023/09/10 14:22:54;;;;;;;;;;;34.10;36.90;;;33.45;36.49;101258.75;12226047;19;19923;-83
2023/09/10 14:26:56;;;;;;;;;;;34.00;36.90;;;33.34;36.41;101237.81;12235922;19;19930;-84
2023/09/10 14:30:58;;;;;;;;;;;34.00;36.60;;;33.37;36.52;101248.19;12226690;19;20012;-83
2023/09/10 14:34:59;;;;;;;;;;;34.00;36.70;;;33.40;36.02;101261.28;12234977;19;20356;-83
2023/09/10 14:39:02;;;;;;;;;;;34.00;36.60;;;33.37;36.21;101250.91;12237473;19;19923;-83
2023/09/10 14:43:03;;;;;;;;;;;33.90;36.50;;;33.38;35.99;101249.03;12237395;19;19923;-83
2023/09/10 14:47:05;;;;;;;;;;;33.90;36.60;;;33.38;36.04;101241.75;12241303;19;19919;-83
2023/09/10 14:51:06;;;;;;;;;;;33.90;36.40;;;33.36;36.08;101241.16;12239570;19;20285;-84
2023/09/10 14:55:09;;;;;;;;;;;33.90;36.50;;;33.33;35.78;101236.19;12240389;19;19958;-84
2023/09/10 14:59:11;;;;;;;;;;;33.90;36.60;;;33.38;35.85;101240.91;12230934;19;19998;-84
2023/09/10 15:03:12;;;;;;;;;;;33.90;36.60;;;33.37;35.61;101239.25;12241021;19;19943;-84
2023/09/10 15:07:13;;;;;;;;;;;33.90;36.50;;;33.34;35.82;101240.53;12243079;19;19923;-83
2023/09/10 15:11:15;;;;;;;;;;;33.80;36.30;;;33.30;35.39;101236.63;12252191;19;19926;-84
2023/09/10 15:15:16;;;;;;;;;;;33.80;36.50;;;33.28;35.62;101233.31;12247238;19;19965;-84
2023/09/10 15:19:17;;;;;;;;;;;33.70;36.40;;;33.25;35.52;101236.47;12246595;19;19919;-84
2023/09/10 15:23:19;;;;;;;;;;;33.70;36.40;;;33.21;35.63;101229.81;12248723;19;19931;-83
2023/09/10 15:27:20;;;;;;;;;;;33.70;36.30;;;33.20;35.54;101233.59;12244609;19;19957;-84
2023/09/10 15:31:23;;;;;;;;;;;33.70;36.30;;;33.19;35.50;101237.34;12251523;19;20318;-84
2023/09/10 15:35:24;;;;;;;;;;;33.70;36.40;;;33.14;35.45;101238.03;12248314;19;20269;-84
2023/09/10 15:39:26;;;;;;;;;;;33.60;36.30;;;33.15;35.60;101231.53;12243518;19;19926;-85
2023/09/10 15:43:29;;;;;;;;;;;33.70;36.30;;;33.05;35.47;101215.81;12251300;19;19949;-85
2023/09/10 15:47:30;;;;;;;;;;;33.60;36.30;;;33.05;35.29;101218.53;12250581;19;19923;-85
2023/09/10 15:51:32;;;;;;;;;;;33.60;36.20;;;33.12;35.42;101223.06;12250214;19;19947;-85
2023/09/10 15:55:34;;;;;;;;;;;33.60;36.20;;;33.10;35.23;101211.59;12249187;19;20583;-85
2023/09/10 15:59:35;;;;;;;;;;;33.60;36.10;;;33.12;35.31;101223.06;12243832;19;19926;-85
2023/09/10 16:03:37;;;;;;;;;;;33.60;36.30;;;33.05;35.28;101221.25;12251829;19;19919;-86
2023/09/10 16:07:38;;;;;;;;;;;33.60;36.30;;;32.88;35.31;101190.31;12241175;19;19928;-85
2023/09/10 16:11:40;;;;;;;;;;;33.50;36.30;;;33.03;35.13;101223.34;12242335;19;19919;-83
2023/09/10 16:15:41;;;;;;;;;;;33.50;36.50;;;32.96;35.16;101217.09;12237885;19;19919;-84
2023/09/10 16:19:43;;;;;;;;;;;33.50;36.50;;;32.92;35.43;101218.59;12234844;19;20851;-85
2023/09/10 16:23:44;;;;;;;;;;;33.40;36.70;;;32.70;35.28;101192.97;12217591;19;19952;-84
2023/09/10 16:27:46;;;;;;;;;;;33.30;36.80;;;32.76;35.09;101205.63;12218777;19;20289;-85
2023/09/10 16:31:47;;;;;;;;;;;33.20;36.80;;;32.72;34.77;101224.16;12233915;19;19915;-84
2023/09/10 16:35:49;;;;;;;;;;;33.10;36.90;;;32.61;35.02;101225.69;12219918;19;19925;-84
2023/09/10 16:39:50;;;;;;;;;;;33.00;36.90;;;32.49;35.35;101224.75;12233602;19;19930;-84
2023/09/10 16:43:51;;;;;;;;;;;32.90;36.90;;;32.39;35.07;101218.94;12235945;19;19914;-84
2023/09/10 16:47:53;;;;;;;;;;;32.80;37.00;;;32.23;35.30;101225.69;12230958;19;19926;-84
2023/09/10 16:51:54;;;;;;;;;;;32.60;37.00;;;32.13;35.00;101226.13;12242489;19;19949;-84
2023/09/10 16:55:57;;;;;;;;;;;32.50;37.00;;;32.04;35.38;101224.75;12242349;19;19926;-84
2023/09/10 16:59:58;;;;;;;;;;;32.30;37.00;;;31.82;35.07;101218.78;12242554;19;19923;-85
2023/09/10 17:03:59;;;;;;;;;;;32.20;37.00;;;31.71;35.39;101219.44;12249312;19;19923;-85
2023/09/10 17:08:02;;;;;;;;;;;32.10;37.10;;;31.62;35.28;101226.09;12221345;19;19932;-84
2023/09/10 17:12:05;;;;;;;;;;;32.00;37.10;;;31.53;35.50;101226.31;12240133;19;19918;-85
2023/09/10 17:16:06;;;;;;;;;;;31.80;37.10;;;31.46;35.33;101227.38;12230621;19;19931;-84
2023/09/10 17:20:09;;;;;;;;;;;31.70;37.10;;;31.13;35.12;101195.84;12237774;19;19929;-85
2023/09/10 17:24:10;;;;;;;;;;;31.60;37.20;;;31.17;35.51;101213.28;12219345;19;19919;-84
2023/09/10 17:28:12;;;;;;;;;;;31.50;37.10;;;30.95;35.31;101201.88;12221873;19;19929;-85
2023/09/10 17:32:15;;;;;;;;;;;31.30;37.10;;;30.95;35.38;101219.94;12230185;19;19968;-84
2023/09/10 17:36:16;;;;;;;;;;;31.20;37.10;;;30.74;35.47;101202.88;12233545;19;20019;-85
2023/09/10 17:40:18;;;;;;;;;;;31.10;37.20;;;30.68;35.31;101209.09;12233643;19;19974;-84
2023/09/10 17:44:19;;;;;;;;;;;30.90;37.20;;;30.39;35.48;101186.84;12239468;19;19922;-84
2023/09/10 17:48:21;;;;;;;;;;;30.80;37.30;;;30.27;35.45;101179.56;12237345;19;20306;-86
2023/09/10 17:52:23;;;;;;;;;;;30.70;37.30;;;30.21;35.65;101190.09;12239350;19;19940;-86
2023/09/10 17:56:24;;;;;;;;;;;30.60;37.40;;;30.19;35.42;101218.25;12242747;19;19919;-86
2023/09/10 18:00:25;;;;;;;;;;;30.40;37.40;;;30.10;35.43;101225.69;12240985;19;20238;-86
2023/09/10 18:04:27;;;;;;;;;;;30.30;37.50;;;30.03;35.49;101226.69;12243480;19;19915;-86
2023/09/10 18:08:28;;;;;;;;;;;30.20;37.60;;;29.86;35.70;101227.03;12241473;19;19915;-86
2023/09/10 18:12:29;;;;;;;;;;;30.00;37.50;;;29.79;35.82;101234.28;12244141;19;19974;-86
2023/09/10 18:16:31;;;;;;;;;;;29.90;37.60;;;29.61;35.60;101229.38;12240783;19;20348;-87